Time;durP1;ratioP1;P1;durP2;ratioP2;P2;SDS_P1;SDS_P2;PMS_P1;PMS_P2;Temp;Humidity;BMP_temperature;BMP_pressure;BME280_temperature;BME280_humidity;BME280_pressure;Samples;Min_cycle;Max_cycle;Signal;HPM_P1;HPM_P2
2023/04/15 06:51:46;;;;;;;;;3.75;2.25;;;;;;;;5543246;22;51916;-74
2023/04/15 06:54:12;;;;;;;;;3.25;3.00;;;;;;;;5076572;22;49774;-80
2023/04/15 06:56:37;;;;;;;;;2.00;2.00;;;;;;;;5109815;27;49847;-81
2023/04/15 06:59:02;;;;;;;;;3.75;3.00;;;;;;;;5111153;27;50703;-79
2023/04/15 07:01:27;;;;;;;;;2.50;2.50;;;;;;;;5111544;27;50209;-79
2023/04/15 07:03:53;;;;;;;;;4.75;3.50;;;;;;;;5112043;27;49808;-79
2023/04/15 07:06:18;;;;;;;;;3.00;3.00;;;;;;;;5110754;27;49763;-78
2023/04/15 07:08:43;;;;;;;;;3.00;3.00;;;;;;;;5111607;27;51207;-79
2023/04/15 07:11:09;;;;;;;;;2.25;2.00;;;;;;;;5112048;27;50064;-79
2023/04/15 07:13:34;;;;;;;;;4.00;4.00;;;;;;;;5111702;27;49812;-79
2023/04/15 07:15:59;;;;;;;;;4.00;3.00;;;;;;;;5111543;27;49974;-78
2023/04/15 07:18:24;;;;;;;;;4.00;4.00;;;;;;;;5106333;27;50213;-79
2023/04/15 07:20:50;;;;;;;;;2.00;2.00;;;;;;;;5111363;27;49626;-78
2023/04/15 07:23:15;;;;;;;;;3.00;3.00;;;;;;;;5110904;27;49763;-78
2023/04/15 07:25:41;;;;;;;;;2.25;1.00;;;;;;;;5111790;27;49891;-78
2023/04/15 07:28:06;;;;;;;;;3.75;3.50;;;;;;;;5111433;27;50121;-80
2023/04/15 07:30:31;;;;;;;;;3.00;3.00;;;;;;;;5111938;27;49951;-80
2023/04/15 07:32:57;;;;;;;;;1.75;1.75;;;;;;;;5106560;27;50334;-79
2023/04/15 07:35:22;;;;;;;;;2.00;2.00;;;;;;;;5083014;27;49968;-76
2023/04/15 07:37:48;;;;;;;;;3.00;3.00;;;;;;;;5101922;27;49731;-77
2023/04/15 07:40:14;;;;;;;;;3.00;3.00;;;;;;;;5107509;27;49629;-77
2023/04/15 07:42:40;;;;;;;;;3.00;3.00;;;;;;;;5111000;27;50162;-80
2023/04/15 07:45:05;;;;;;;;;4.00;2.00;;;;;;;;5110879;27;49728;-78
2023/04/15 07:47:31;;;;;;;;;4.00;2.00;;;;;;;;5110751;27;49824;-78
2023/04/15 07:49:56;;;;;;;;;2.00;2.00;;;;;;;;5110672;27;49833;-78
2023/04/15 07:52:21;;;;;;;;;3.00;2.00;;;;;;;;5105754;27;50183;-79
2023/04/15 07:54:46;;;;;;;;;1.25;1.25;;;;;;;;5107438;27;50004;-80
2023/04/15 07:57:11;;;;;;;;;4.00;4.00;;;;;;;;5110781;27;50733;-80
2023/04/15 07:59:37;;;;;;;;;1.00;1.00;;;;;;;;5079211;27;49953;-78
2023/04/15 08:02:02;;;;;;;;;4.75;4.75;;;;;;;;5110806;27;49959;-77
2023/04/15 08:04:27;;;;;;;;;2.50;2.50;;;;;;;;5110754;27;49726;-77
2023/04/15 08:06:52;;;;;;;;;3.50;3.50;;;;;;;;5110417;27;50135;-78
2023/04/15 08:09:18;;;;;;;;;1.00;1.00;;;;;;;;5110703;27;50161;-78
2023/04/15 08:11:43;;;;;;;;;0.25;0.25;;;;;;;;5110445;27;50086;-79
2023/04/15 08:14:08;;;;;;;;;0.00;0.00;;;;;;;;5110388;27;50047;-78
2023/04/15 08:16:34;;;;;;;;;1.75;1.75;;;;;;;;5110295;27;49750;-80
2023/04/15 08:18:59;;;;;;;;;1.00;1.00;;;;;;;;5110471;27;50328;-79
2023/04/15 08:21:24;;;;;;;;;3.25;3.25;;;;;;;;5110310;27;49684;-79
2023/04/15 08:23:50;;;;;;;;;1.25;1.25;;;;;;;;5110182;27;50141;-80
2023/04/15 08:26:16;;;;;;;;;2.25;1.25;;;;;;;;5109797;27;49656;-81
2023/04/15 08:28:41;;;;;;;;;2.00;2.00;;;;;;;;5108045;27;49756;-79
2023/04/15 08:31:08;;;;;;;;;2.00;1.00;;;;;;;;5110331;27;50000;-77
2023/04/15 08:33:33;;;;;;;;;1.00;1.00;;;;;;;;5110162;27;49642;-77
2023/04/15 08:35:58;;;;;;;;;2.00;2.00;;;;;;;;5102899;27;49823;-73
2023/04/15 08:38:23;;;;;;;;;1.00;1.00;;;;;;;;5097713;27;49650;-83
2023/04/15 08:40:48;;;;;;;;;1.50;1.50;;;;;;;;5081651;27;49797;-79
2023/04/15 08:43:25;;;;;;;;;4.50;4.25;;;;;;;;5105327;27;49945;-80
2023/04/15 08:45:51;;;;;;;;;0.75;0.75;;;;;;;;5104585;27;50343;-75
2023/04/15 08:48:16;;;;;;;;;0.00;0.00;;;;;;;;5099189;27;49674;-78
2023/04/15 08:50:42;;;;;;;;;0.75;0.75;;;;;;;;5098798;27;49852;-77
2023/04/15 08:53:07;;;;;;;;;3.00;3.00;;;;;;;;5107193;27;49713;-72
2023/04/15 08:55:35;;;;;;;;;1.00;1.00;;;;;;;;5106908;27;50859;-73
2023/04/15 08:58:03;;;;;;;;;10.25;8.50;;;;;;;;5109084;27;49849;-74
2023/04/15 09:00:29;;;;;;;;;1.00;1.00;;;;;;;;5100169;27;49769;-78
2023/04/15 09:02:55;;;;;;;;;4.75;3.00;;;;;;;;5092702;27;49787;-77
2023/04/15 09:05:21;;;;;;;;;3.00;3.00;;;;;;;;5108112;27;51418;-77
2023/04/15 09:07:47;;;;;;;;;2.00;1.25;;;;;;;;5104225;27;50006;-77
2023/04/15 09:10:12;;;;;;;;;3.00;3.00;;;;;;;;5109650;27;49799;-78
2023/04/15 09:12:37;;;;;;;;;2.25;1.00;;;;;;;;5109701;27;49968;-75
2023/04/15 09:15:03;;;;;;;;;2.50;2.50;;;;;;;;5096688;27;49880;-73
2023/04/15 09:17:31;;;;;;;;;0.00;0.00;;;;;;;;5096607;27;49824;-74
2023/04/15 09:20:13;;;;;;;;;1.00;1.00;;;;;;;;5080558;27;49626;-75
2023/04/15 09:22:42;;;;;;;;;1.75;1.75;;;;;;;;5107824;27;50040;-74
2023/04/15 09:25:13;;;;;;;;;2.00;2.00;;;;;;;;5108511;27;50739;-76
2023/04/15 09:27:46;;;;;;;;;2.00;2.00;;;;;;;;5103324;27;49865;-82
2023/04/15 09:30:12;;;;;;;;;1.00;1.00;;;;;;;;5099870;27;49731;-79
2023/04/15 09:32:46;;;;;;;;;1.75;1.00;;;;;;;;5105872;27;49712;-76
2023/04/15 09:35:12;;;;;;;;;0.75;0.75;;;;;;;;5102140;27;50441;-75
2023/04/15 09:37:37;;;;;;;;;2.50;2.50;;;;;;;;5097766;27;50117;-79
2023/04/15 09:40:02;;;;;;;;;11.50;11.00;;;;;;;;5085125;27;49850;-77
2023/04/15 09:42:28;;;;;;;;;4.25;3.25;;;;;;;;5082932;27;49995;-74
2023/04/15 09:44:53;;;;;;;;;3.00;3.00;;;;;;;;5103320;27;50371;-77
2023/04/15 09:47:31;;;;;;;;;2.00;2.00;;;;;;;;5078217;27;50090;-81
2023/04/15 09:49:56;;;;;;;;;2.00;2.00;;;;;;;;5104088;27;49806;-74
2023/04/15 09:52:22;;;;;;;;;2.75;2.75;;;;;;;;5102636;27;50389;-77
2023/04/15 09:54:47;;;;;;;;;3.50;2.00;;;;;;;;5108448;27;51286;-77
2023/04/15 09:57:12;;;;;;;;;2.25;2.25;;;;;;;;5106290;27;49746;-78
2023/04/15 09:59:37;;;;;;;;;2.75;2.75;;;;;;;;5105952;27;50239;-75
2023/04/15 10:02:08;;;;;;;;;2.25;2.25;;;;;;;;5097182;27;49953;-75
2023/04/15 10:04:39;;;;;;;;;2.00;2.00;;;;;;;;5102001;27;50389;-77
2023/04/15 10:07:05;;;;;;;;;1.25;1.25;;;;;;;;5104845;27;49591;-77
2023/04/15 10:09:32;;;;;;;;;2.00;2.00;;;;;;;;5110207;27;49864;-77
2023/04/15 10:11:57;;;;;;;;;1.25;1.25;;;;;;;;5112638;27;50184;-77
2023/04/15 10:14:24;;;;;;;;;2.00;2.00;;;;;;;;5111864;27;50902;-77
2023/04/15 10:16:49;;;;;;;;;1.75;1.75;;;;;;;;5103033;27;49791;-77
2023/04/15 10:19:17;;;;;;;;;49.50;39.50;;;;;;;;5095211;27;49785;-77
2023/04/15 10:21:43;;;;;;;;;16.50;16.25;;;;;;;;5112473;27;50014;-77
2023/04/15 10:24:09;;;;;;;;;2.00;2.00;;;;;;;;5111471;27;50767;-78
2023/04/15 10:26:34;;;;;;;;;3.00;3.00;;;;;;;;5108048;27;49986;-77
2023/04/15 10:29:00;;;;;;;;;1.00;1.00;;;;;;;;5105912;27;49830;-78
2023/04/15 10:31:25;;;;;;;;;1.75;1.75;;;;;;;;5110049;27;50002;-77
2023/04/15 10:33:51;;;;;;;;;1.00;1.00;;;;;;;;5105621;27;50599;-76
2023/04/15 10:36:17;;;;;;;;;3.00;3.00;;;;;;;;5111854;27;49840;-76
2023/04/15 10:38:44;;;;;;;;;2.00;1.00;;;;;;;;5111863;27;50038;-77
2023/04/15 10:41:16;;;;;;;;;3.00;2.00;;;;;;;;5111940;27;50310;-77
2023/04/15 10:44:00;;;;;;;;;0.50;0.50;;;;;;;;5100460;27;50318;-76
2023/04/15 10:46:37;;;;;;;;;2.25;1.00;;;;;;;;5100416;27;50140;-77
2023/04/15 10:49:28;;;;;;;;;5.00;2.25;;;;;;;;5104897;27;50258;-77
2023/04/15 10:51:57;;;;;;;;;2.75;2.00;;;;;;;;5095272;27;49668;-76
2023/04/15 10:54:22;;;;;;;;;1.00;1.00;;;;;;;;5100718;27;50702;-76
2023/04/15 10:56:50;;;;;;;;;4.00;3.00;;;;;;;;5098594;27;49760;-76
2023/04/15 10:59:15;;;;;;;;;1.25;1.25;;;;;;;;5093951;27;49759;-76
2023/04/15 11:01:55;;;;;;;;;1.00;1.00;;;;;;;;5100678;27;49673;-76
2023/04/15 11:04:39;;;;;;;;;2.00;2.00;;;;;;;;5086153;27;51662;-76
2023/04/15 11:07:05;;;;;;;;;2.75;2.00;;;;;;;;5101416;27;49751;-76
2023/04/15 11:09:32;;;;;;;;;2.25;2.00;;;;;;;;5106678;27;49759;-76
2023/04/15 11:12:04;;;;;;;;;3.00;3.00;;;;;;;;5099828;27;50023;-77
2023/04/15 11:14:31;;;;;;;;;4.50;2.75;;;;;;;;5099135;27;50560;-78
2023/04/15 11:16:57;;;;;;;;;7.25;4.50;;;;;;;;5111355;27;49792;-77
2023/04/15 11:19:22;;;;;;;;;3.00;3.00;;;;;;;;5087979;27;51051;-76
2023/04/15 11:21:47;;;;;;;;;2.00;2.00;;;;;;;;5111498;27;50142;-76
2023/04/15 11:24:25;;;;;;;;;3.00;2.00;;;;;;;;5111029;27;51527;-77
2023/04/15 11:26:50;;;;;;;;;3.00;3.00;;;;;;;;5102133;27;49808;-77
2023/04/15 11:29:18;;;;;;;;;4.00;4.00;;;;;;;;5102532;27;49678;-76
2023/04/15 11:31:48;;;;;;;;;4.75;4.75;;;;;;;;5111042;27;49680;-76
2023/04/15 11:34:21;;;;;;;;;4.00;4.00;;;;;;;;5097808;27;51313;-77
2023/04/15 11:36:47;;;;;;;;;3.50;3.50;;;;;;;;5098798;27;49789;-76
2023/04/15 11:39:12;;;;;;;;;4.50;4.00;;;;;;;;5095729;27;49990;-77
2023/04/15 11:41:37;;;;;;;;;7.00;7.00;;;;;;;;5092472;27;50038;-77
2023/04/15 11:44:15;;;;;;;;;5.00;3.75;;;;;;;;5102989;27;50487;-77
2023/04/15 11:46:40;;;;;;;;;5.00;5.00;;;;;;;;5109458;27;49818;-78
2023/04/15 11:49:05;;;;;;;;;3.00;2.00;;;;;;;;5104010;27;49820;-76
2023/04/15 11:51:34;;;;;;;;;2.75;2.75;;;;;;;;5078963;27;50156;-74
2023/04/15 11:53:59;;;;;;;;;2.00;2.00;;;;;;;;5097850;27;50179;-75
2023/04/15 11:56:25;;;;;;;;;3.00;2.00;;;;;;;;5102838;27;49642;-75
2023/04/15 11:58:51;;;;;;;;;3.00;3.00;;;;;;;;5110405;27;49776;-74
2023/04/15 12:01:17;;;;;;;;;4.00;4.00;;;;;;;;5108876;27;49764;-75
2023/04/15 12:03:44;;;;;;;;;2.50;2.50;;;;;;;;5097125;27;51383;-76
2023/04/15 12:06:12;;;;;;;;;2.25;2.00;;;;;;;;5110446;27;49842;-75
2023/04/15 12:08:54;;;;;;;;;5.50;4.50;;;;;;;;5097488;27;50115;-76
2023/04/15 12:11:20;;;;;;;;;2.00;2.00;;;;;;;;5110426;27;50007;-75
2023/04/15 12:13:48;;;;;;;;;3.00;3.00;;;;;;;;5110138;27;50981;-76
2023/04/15 12:16:18;;;;;;;;;2.00;2.00;;;;;;;;5106106;27;50096;-77
2023/04/15 12:18:47;;;;;;;;;3.00;3.00;;;;;;;;5101667;27;49831;-75
2023/04/15 12:21:12;;;;;;;;;1.75;1.00;;;;;;;;5091677;27;50244;-75
2023/04/15 12:23:38;;;;;;;;;2.50;2.50;;;;;;;;5108835;27;50109;-76
2023/04/15 12:26:06;;;;;;;;;2.00;2.00;;;;;;;;5108909;27;49804;-76
2023/04/15 12:28:33;;;;;;;;;3.75;3.75;;;;;;;;5107866;27;50152;-76
2023/04/15 12:30:58;;;;;;;;;3.00;3.00;;;;;;;;5090932;27;49776;-76
2023/04/15 12:33:31;;;;;;;;;5.00;5.00;;;;;;;;5108673;27;50148;-76
2023/04/15 12:35:56;;;;;;;;;2.50;2.50;;;;;;;;5109480;27;49957;-76
2023/04/15 12:38:22;;;;;;;;;4.00;4.00;;;;;;;;5099489;27;50160;-76
2023/04/15 12:40:47;;;;;;;;;1.25;1.25;;;;;;;;5104726;27;49920;-76
2023/04/15 12:43:12;;;;;;;;;2.75;2.75;;;;;;;;5108981;27;50350;-76
2023/04/15 12:45:37;;;;;;;;;1.00;1.00;;;;;;;;5109717;27;50044;-75
2023/04/15 12:48:02;;;;;;;;;2.00;2.00;;;;;;;;5110151;27;50131;-76
2023/04/15 12:50:28;;;;;;;;;2.00;2.00;;;;;;;;5109765;27;49983;-76
2023/04/15 12:52:53;;;;;;;;;2.00;2.00;;;;;;;;5109557;27;49950;-75
2023/04/15 12:55:18;;;;;;;;;2.00;2.00;;;;;;;;5102700;27;49733;-75
2023/04/15 12:57:43;;;;;;;;;2.25;2.25;;;;;;;;5105010;27;50136;-71
2023/04/15 13:00:09;;;;;;;;;2.25;2.25;;;;;;;;5101901;27;50534;-72
2023/04/15 13:02:34;;;;;;;;;2.00;2.00;;;;;;;;5107578;27;50505;-72
2023/04/15 13:04:59;;;;;;;;;2.00;2.00;;;;;;;;5101662;27;50084;-72
2023/04/15 13:07:24;;;;;;;;;2.00;2.00;;;;;;;;5109195;27;49919;-72
2023/04/15 13:09:50;;;;;;;;;5.25;3.25;;;;;;;;5101587;27;49779;-72
2023/04/15 13:12:15;;;;;;;;;2.00;2.00;;;;;;;;5095688;27;51079;-71
2023/04/15 13:14:40;;;;;;;;;2.75;2.75;;;;;;;;5100197;27;49871;-72
2023/04/15 13:17:09;;;;;;;;;2.00;2.00;;;;;;;;5102000;27;50032;-72
2023/04/15 13:19:35;;;;;;;;;4.00;3.00;;;;;;;;5094307;27;49845;-71
2023/04/15 13:22:00;;;;;;;;;2.00;2.00;;;;;;;;5076807;27;50034;-73
2023/04/15 13:24:25;;;;;;;;;2.00;2.00;;;;;;;;5079247;27;49614;-72
2023/04/15 13:26:52;;;;;;;;;1.75;1.75;;;;;;;;5095385;27;50123;-73
2023/04/15 13:29:17;;;;;;;;;1.75;1.00;;;;;;;;5091918;27;49992;-77
2023/04/15 13:31:42;;;;;;;;;2.50;2.50;;;;;;;;5095196;27;49926;-75
2023/04/15 13:34:07;;;;;;;;;2.50;2.50;;;;;;;;5074423;27;51370;-74
2023/04/15 13:36:33;;;;;;;;;2.75;2.75;;;;;;;;5092311;27;50207;-76
2023/04/15 13:38:58;;;;;;;;;2.00;2.00;;;;;;;;5096214;27;49822;-74
2023/04/15 13:41:24;;;;;;;;;2.00;2.00;;;;;;;;5090953;27;50166;-72
2023/04/15 13:43:50;;;;;;;;;2.00;2.00;;;;;;;;5090692;27;49763;-77
2023/04/15 13:46:15;;;;;;;;;2.00;2.00;;;;;;;;5096989;27;49860;-74
2023/04/15 13:48:40;;;;;;;;;4.00;3.25;;;;;;;;5097138;27;50809;-73
2023/04/15 13:51:05;;;;;;;;;1.00;1.00;;;;;;;;5076054;27;52666;-75
2023/04/15 13:53:31;;;;;;;;;1.25;1.25;;;;;;;;5093685;27;51181;-74
2023/04/15 13:55:56;;;;;;;;;2.00;2.00;;;;;;;;5091970;27;49872;-73
2023/04/15 13:58:21;;;;;;;;;1.50;1.50;;;;;;;;5098227;27;49774;-75
2023/04/15 14:00:47;;;;;;;;;4.00;2.75;;;;;;;;5077097;27;50233;-76
2023/04/15 14:03:12;;;;;;;;;3.25;3.25;;;;;;;;5099274;27;51003;-76
2023/04/15 14:05:37;;;;;;;;;2.75;2.75;;;;;;;;5105104;27;49826;-77
2023/04/15 14:08:02;;;;;;;;;3.00;3.00;;;;;;;;5096523;27;50126;-76
2023/04/15 14:10:27;;;;;;;;;2.00;2.00;;;;;;;;5100853;27;49931;-77
2023/04/15 14:12:52;;;;;;;;;4.00;3.25;;;;;;;;5097528;27;50005;-73
2023/04/15 14:15:18;;;;;;;;;2.00;2.00;;;;;;;;5097942;27;49680;-74
2023/04/15 14:17:43;;;;;;;;;1.75;1.75;;;;;;;;5107233;27;49729;-77
2023/04/15 14:20:08;;;;;;;;;8.25;7.25;;;;;;;;5079329;27;50109;-73
2023/04/15 14:22:33;;;;;;;;;4.00;4.00;;;;;;;;5096081;27;49932;-75
2023/04/15 14:24:59;;;;;;;;;5.00;5.00;;;;;;;;5098144;27;49700;-73
2023/04/15 14:27:25;;;;;;;;;2.00;2.00;;;;;;;;5070985;27;49923;-78
2023/04/15 14:29:52;;;;;;;;;7.00;7.00;;;;;;;;5097446;27;51439;-79
2023/04/15 14:32:17;;;;;;;;;8.00;8.00;;;;;;;;5098809;27;50502;-82
2023/04/15 14:34:42;;;;;;;;;5.75;4.75;;;;;;;;5096451;27;50337;-76
2023/04/15 14:37:07;;;;;;;;;7.25;5.75;;;;;;;;5099579;27;49859;-75
2023/04/15 14:39:33;;;;;;;;;4.25;4.25;;;;;;;;5100837;27;50100;-76
2023/04/15 14:41:58;;;;;;;;;6.75;5.75;;;;;;;;5107847;27;49792;-76
2023/04/15 14:44:24;;;;;;;;;3.00;3.00;;;;;;;;5106873;27;50178;-76
2023/04/15 14:46:50;;;;;;;;;5.00;3.00;;;;;;;;5108439;27;50014;-76
2023/04/15 14:49:15;;;;;;;;;3.75;3.00;;;;;;;;5108556;27;50087;-77
2023/04/15 14:51:40;;;;;;;;;3.25;3.25;;;;;;;;5111374;27;50346;-78
2023/04/15 14:54:05;;;;;;;;;4.00;4.00;;;;;;;;5100235;27;50068;-76
2023/04/15 14:56:30;;;;;;;;;3.00;3.00;;;;;;;;5095405;27;49736;-77
2023/04/15 14:58:56;;;;;;;;;5.00;5.00;;;;;;;;5103326;27;50036;-77
2023/04/15 15:01:21;;;;;;;;;5.00;4.75;;;;;;;;5098900;27;50083;-81
2023/04/15 15:03:47;;;;;;;;;5.50;5.50;;;;;;;;5098889;27;49821;-81
2023/04/15 15:06:12;;;;;;;;;7.00;7.00;;;;;;;;5101512;27;50033;-78
2023/04/15 15:08:37;;;;;;;;;5.00;5.00;;;;;;;;5098832;27;49775;-79
2023/04/15 15:11:02;;;;;;;;;5.75;5.75;;;;;;;;5080461;27;50177;-84
2023/04/15 15:13:28;;;;;;;;;5.50;5.50;;;;;;;;5097775;27;49880;-83
2023/04/15 15:15:53;;;;;;;;;7.00;6.75;;;;;;;;5111543;27;49679;-80
2023/04/15 15:18:18;;;;;;;;;3.75;3.75;;;;;;;;5104572;27;51191;-84
2023/04/15 15:20:43;;;;;;;;;3.50;3.50;;;;;;;;5111370;27;50098;-80
2023/04/15 15:23:09;;;;;;;;;6.00;3.50;;;;;;;;5110401;27;50092;-81
2023/04/15 15:25:34;;;;;;;;;2.75;2.75;;;;;;;;5102745;27;50007;-79
2023/04/15 15:27:59;;;;;;;;;4.00;3.00;;;;;;;;5079773;27;51058;-82
2023/04/15 15:30:24;;;;;;;;;3.00;3.00;;;;;;;;5095020;27;49927;-82
2023/04/15 15:32:50;;;;;;;;;4.25;4.25;;;;;;;;5108042;27;50042;-83
2023/04/15 15:35:15;;;;;;;;;4.25;3.25;;;;;;;;5099439;27;49990;-84
2023/04/15 15:37:40;;;;;;;;;3.00;3.00;;;;;;;;5094972;27;50180;-80
2023/04/15 15:40:06;;;;;;;;;4.50;4.00;;;;;;;;5105808;27;49915;-83
2023/04/15 15:42:32;;;;;;;;;2.00;2.00;;;;;;;;5093325;27;49890;-81
2023/04/15 15:44:57;;;;;;;;;2.50;2.50;;;;;;;;5099130;27;50166;-81
2023/04/15 15:47:22;;;;;;;;;3.00;3.00;;;;;;;;5096807;27;49871;-80
2023/04/15 15:49:47;;;;;;;;;4.25;4.25;;;;;;;;5100276;27;49812;-83
2023/04/15 15:52:13;;;;;;;;;5.25;4.50;;;;;;;;5106838;27;49716;-79
2023/04/15 15:54:38;;;;;;;;;3.25;3.25;;;;;;;;5108846;27;49771;-81
2023/04/15 15:57:04;;;;;;;;;4.25;4.00;;;;;;;;5109826;27;50297;-79
2023/04/15 15:59:29;;;;;;;;;5.00;4.00;;;;;;;;5115703;27;49752;-80
2023/04/15 16:01:54;;;;;;;;;4.50;4.50;;;;;;;;5109878;27;50014;-82
2023/04/15 16:04:19;;;;;;;;;5.75;4.25;;;;;;;;5110293;27;50086;-80
2023/04/15 16:06:45;;;;;;;;;4.00;4.00;;;;;;;;5108576;27;50143;-80
2023/04/15 16:09:10;;;;;;;;;7.00;7.00;;;;;;;;5091980;27;49730;-80
2023/04/15 16:11:36;;;;;;;;;7.25;6.50;;;;;;;;5110483;27;50224;-79
2023/04/15 16:14:01;;;;;;;;;3.25;3.25;;;;;;;;5104664;27;50171;-80
2023/04/15 16:16:27;;;;;;;;;3.75;3.75;;;;;;;;5093955;27;49971;-80
2023/04/15 16:18:52;;;;;;;;;6.00;5.00;;;;;;;;5084833;27;50022;-78
2023/04/15 16:21:19;;;;;;;;;4.50;4.50;;;;;;;;5104762;27;50270;-77
2023/04/15 16:23:44;;;;;;;;;6.25;6.25;;;;;;;;5110684;27;49598;-78
2023/04/15 16:26:09;;;;;;;;;5.00;5.00;;;;;;;;5110022;27;50526;-80
2023/04/15 16:28:35;;;;;;;;;5.50;5.00;;;;;;;;5110066;27;49740;-77
2023/04/15 16:31:00;;;;;;;;;9.75;6.50;;;;;;;;5109506;27;49649;-80
2023/04/15 16:33:25;;;;;;;;;6.25;5.50;;;;;;;;5110150;27;49903;-81
2023/04/15 16:35:51;;;;;;;;;5.75;5.00;;;;;;;;5110212;27;50590;-79
2023/04/15 16:38:16;;;;;;;;;7.25;7.25;;;;;;;;5108606;27;49826;-78
2023/04/15 16:40:41;;;;;;;;;5.25;4.75;;;;;;;;5110016;27;49952;-79
2023/04/15 16:43:07;;;;;;;;;9.00;8.00;;;;;;;;5110053;27;49638;-80
2023/04/15 16:45:32;;;;;;;;;7.25;7.25;;;;;;;;5091661;27;50778;-79
2023/04/15 16:47:57;;;;;;;;;9.75;8.50;;;;;;;;5095178;27;49739;-78
2023/04/15 16:50:22;;;;;;;;;10.75;10.00;;;;;;;;5109227;27;49727;-78
2023/04/15 16:52:48;;;;;;;;;14.25;11.00;;;;;;;;5102637;27;50000;-76
2023/04/15 16:55:13;;;;;;;;;9.25;9.25;;;;;;;;5105807;27;50138;-78
2023/04/15 16:57:38;;;;;;;;;11.75;11.75;;;;;;;;5104893;27;49853;-78
2023/04/15 17:00:04;;;;;;;;;10.75;10.75;;;;;;;;5104162;27;50078;-77
2023/04/15 17:02:30;;;;;;;;;11.00;9.25;;;;;;;;5096984;27;51051;-80
2023/04/15 17:04:55;;;;;;;;;13.50;11.25;;;;;;;;5081864;27;50093;-79
2023/04/15 17:07:20;;;;;;;;;13.75;13.00;;;;;;;;5098739;27;50231;-76
2023/04/15 17:09:45;;;;;;;;;9.75;9.50;;;;;;;;5100688;27;49757;-77
2023/04/15 17:12:11;;;;;;;;;12.75;11.00;;;;;;;;5100213;27;49997;-77
2023/04/15 17:14:37;;;;;;;;;18.00;17.25;;;;;;;;5096702;27;50768;-77
2023/04/15 17:17:02;;;;;;;;;12.75;11.25;;;;;;;;5099093;27;50168;-78
2023/04/15 17:19:28;;;;;;;;;12.00;11.25;;;;;;;;5097703;27;49799;-78
2023/04/15 17:21:53;;;;;;;;;14.25;13.50;;;;;;;;5098372;27;50111;-78
2023/04/15 17:24:18;;;;;;;;;9.75;9.75;;;;;;;;5098785;27;50725;-79
2023/04/15 17:26:43;;;;;;;;;13.50;13.25;;;;;;;;5100843;27;50111;-79
2023/04/15 17:29:08;;;;;;;;;13.50;13.50;;;;;;;;5094182;27;50799;-78
2023/04/15 17:31:34;;;;;;;;;13.00;12.75;;;;;;;;5092158;27;49766;-78
2023/04/15 17:33:59;;;;;;;;;15.00;12.50;;;;;;;;5099716;27;49900;-78
2023/04/15 17:36:25;;;;;;;;;14.25;14.25;;;;;;;;5098080;27;50038;-78
2023/04/15 17:38:51;;;;;;;;;13.75;13.25;;;;;;;;5096649;27;49895;-77
2023/04/15 17:41:16;;;;;;;;;19.50;17.75;;;;;;;;5100760;27;50988;-76
2023/04/15 17:43:41;;;;;;;;;12.50;12.50;;;;;;;;5099754;27;50089;-80
2023/04/15 17:46:06;;;;;;;;;12.25;11.25;;;;;;;;5091966;27;50319;-79
2023/04/15 17:48:32;;;;;;;;;9.25;9.25;;;;;;;;5091707;27;49796;-78
2023/04/15 17:50:57;;;;;;;;;17.25;15.00;;;;;;;;5106723;27;50182;-76
2023/04/15 17:53:22;;;;;;;;;7.75;7.50;;;;;;;;5101018;27;51013;-77
2023/04/15 17:55:49;;;;;;;;;16.25;14.50;;;;;;;;5097284;27;50303;-86
2023/04/15 17:58:14;;;;;;;;;12.00;12.00;;;;;;;;5100197;27;50120;-85
2023/04/15 18:00:39;;;;;;;;;16.25;12.50;;;;;;;;5095613;27;49817;-79
2023/04/15 18:03:04;;;;;;;;;15.50;15.50;;;;;;;;5096051;27;50229;-78
2023/04/15 18:05:30;;;;;;;;;13.00;13.00;;;;;;;;5081220;27;49959;-77
2023/04/15 18:07:55;;;;;;;;;16.75;15.75;;;;;;;;5108867;27;49721;-78
2023/04/15 18:10:20;;;;;;;;;15.75;14.75;;;;;;;;5108739;27;49960;-75
2023/04/15 18:12:46;;;;;;;;;17.50;15.50;;;;;;;;5090192;27;50522;-82
2023/04/15 18:15:13;;;;;;;;;17.00;15.00;;;;;;;;5090643;27;49709;-79
2023/04/15 18:17:38;;;;;;;;;17.00;14.00;;;;;;;;5108555;27;49876;-78
2023/04/15 18:20:03;;;;;;;;;14.25;14.25;;;;;;;;5084255;27;49993;-79
2023/04/15 18:22:29;;;;;;;;;16.50;15.50;;;;;;;;5101652;27;49874;-87
2023/04/15 18:24:56;;;;;;;;;17.00;14.75;;;;;;;;5099376;27;50171;-77
2023/04/15 18:27:21;;;;;;;;;14.25;14.25;;;;;;;;5097796;27;49741;-78
2023/04/15 18:29:46;;;;;;;;;20.00;16.00;;;;;;;;5106279;27;50068;-75
2023/04/15 18:32:12;;;;;;;;;22.00;17.75;;;;;;;;5106093;27;49810;-76
2023/04/15 18:34:37;;;;;;;;;13.50;12.75;;;;;;;;5100231;27;49797;-75
2023/04/15 18:37:04;;;;;;;;;20.00;20.00;;;;;;;;5097492;27;49701;-74
2023/04/15 18:39:29;;;;;;;;;17.50;16.25;;;;;;;;5104908;27;50045;-74
2023/04/15 18:41:56;;;;;;;;;21.00;17.75;;;;;;;;5092068;27;50706;-74
2023/04/15 18:44:21;;;;;;;;;22.00;18.75;;;;;;;;5103626;27;50074;-74
2023/04/15 18:46:47;;;;;;;;;19.00;17.50;;;;;;;;5103423;27;49667;-76
2023/04/15 18:49:12;;;;;;;;;20.25;18.50;;;;;;;;5096456;27;50153;-78
2023/04/15 18:51:37;;;;;;;;;17.25;17.25;;;;;;;;5100335;27;50602;-78
2023/04/15 18:54:02;;;;;;;;;25.00;22.00;;;;;;;;5105486;27;49865;-74
2023/04/15 18:56:28;;;;;;;;;18.75;18.00;;;;;;;;5111309;27;50035;-73
2023/04/15 18:58:53;;;;;;;;;22.00;21.50;;;;;;;;5101736;27;50017;-76
2023/04/15 19:01:19;;;;;;;;;17.75;16.50;;;;;;;;5110475;27;49980;-74
2023/04/15 19:03:44;;;;;;;;;19.25;18.25;;;;;;;;5109887;27;49669;-77
2023/04/15 19:06:09;;;;;;;;;19.50;19.50;;;;;;;;5088121;27;49777;-80
2023/04/15 19:08:35;;;;;;;;;25.00;24.00;;;;;;;;5102014;27;50011;-77
2023/04/15 19:11:00;;;;;;;;;24.00;23.75;;;;;;;;5088979;27;51271;-76
2023/04/15 19:13:25;;;;;;;;;22.00;22.00;;;;;;;;5111446;27;49694;-76
2023/04/15 19:15:51;;;;;;;;;23.50;23.50;;;;;;;;5111191;27;49921;-77
2023/04/15 19:18:16;;;;;;;;;24.25;18.00;;;;;;;;5103350;27;49927;-77
2023/04/15 19:20:41;;;;;;;;;27.00;25.25;;;;;;;;5111693;27;49750;-77
2023/04/15 19:23:08;;;;;;;;;24.50;21.00;;;;;;;;5111323;27;49850;-73
2023/04/15 19:25:33;;;;;;;;;26.00;26.00;;;;;;;;5099098;27;49850;-75
2023/04/15 19:27:59;;;;;;;;;32.50;30.00;;;;;;;;5098315;27;49690;-78
2023/04/15 19:30:24;;;;;;;;;26.50;25.50;;;;;;;;5108213;27;50057;-75
2023/04/15 19:32:49;;;;;;;;;34.25;32.00;;;;;;;;5111286;27;49732;-77
2023/04/15 19:35:15;;;;;;;;;23.00;23.00;;;;;;;;5111073;27;49920;-77
2023/04/15 19:37:40;;;;;;;;;29.00;28.00;;;;;;;;5110119;27;50080;-78
2023/04/15 19:40:05;;;;;;;;;26.25;25.75;;;;;;;;5110799;27;49752;-77
2023/04/15 19:42:31;;;;;;;;;32.75;28.25;;;;;;;;5100068;27;50190;-77
2023/04/15 19:44:56;;;;;;;;;27.00;24.75;;;;;;;;5097643;27;49970;-73
2023/04/15 19:47:22;;;;;;;;;30.75;26.50;;;;;;;;5111138;27;49703;-73
2023/04/15 19:49:47;;;;;;;;;27.75;25.25;;;;;;;;5110770;27;50022;-74
2023/04/15 19:52:12;;;;;;;;;28.25;26.25;;;;;;;;5110886;27;49751;-74
2023/04/15 19:54:37;;;;;;;;;24.00;24.00;;;;;;;;5110685;27;49694;-74
2023/04/15 19:57:02;;;;;;;;;27.50;23.50;;;;;;;;5110769;27;49645;-74
2023/04/15 19:59:28;;;;;;;;;26.00;24.50;;;;;;;;5110351;27;50650;-74
2023/04/15 20:01:53;;;;;;;;;26.50;24.50;;;;;;;;5111008;27;50127;-74
2023/04/15 20:04:18;;;;;;;;;29.50;27.25;;;;;;;;5109780;27;49860;-74
2023/04/15 20:06:43;;;;;;;;;28.25;27.25;;;;;;;;5110995;27;49699;-75
2023/04/15 20:09:08;;;;;;;;;24.50;24.50;;;;;;;;5110689;27;49870;-75
2023/04/15 20:11:34;;;;;;;;;28.00;26.25;;;;;;;;5109918;27;49839;-75
2023/04/15 20:13:59;;;;;;;;;32.50;27.00;;;;;;;;5098368;27;49760;-75
2023/04/15 20:16:25;;;;;;;;;25.50;23.50;;;;;;;;5094623;27;50029;-75
2023/04/15 20:18:50;;;;;;;;;30.25;26.00;;;;;;;;5097719;27;50560;-74
2023/04/15 20:21:16;;;;;;;;;31.75;30.25;;;;;;;;5097349;27;50112;-74
2023/04/15 20:23:41;;;;;;;;;33.50;29.00;;;;;;;;5094268;27;50050;-75
2023/04/15 20:26:06;;;;;;;;;35.75;32.25;;;;;;;;5100501;27;49746;-74
2023/04/15 20:28:32;;;;;;;;;35.50;29.50;;;;;;;;5086520;27;50585;-75
2023/04/15 20:30:57;;;;;;;;;35.75;29.50;;;;;;;;5096943;27;49741;-75
2023/04/15 20:33:24;;;;;;;;;33.00;30.25;;;;;;;;5091479;27;49953;-75
2023/04/15 20:35:50;;;;;;;;;39.50;34.50;;;;;;;;5096641;27;49945;-74
2023/04/15 20:38:15;;;;;;;;;38.75;32.25;;;;;;;;5104131;27;50736;-76
2023/04/15 20:40:40;;;;;;;;;31.75;30.25;;;;;;;;5101865;27;50157;-74
2023/04/15 20:43:05;;;;;;;;;36.75;33.25;;;;;;;;5109834;27;49798;-75
2023/04/15 20:45:31;;;;;;;;;33.00;29.50;;;;;;;;5098012;27;49977;-73
2023/04/15 20:47:56;;;;;;;;;33.75;30.50;;;;;;;;5102967;27;51585;-75
2023/04/15 20:50:21;;;;;;;;;35.25;33.00;;;;;;;;5092997;27;49703;-75
2023/04/15 20:52:46;;;;;;;;;34.00;31.50;;;;;;;;5102745;27;49761;-76
2023/04/15 20:55:11;;;;;;;;;37.50;34.25;;;;;;;;5109422;27;50255;-74
2023/04/15 20:57:37;;;;;;;;;37.25;30.25;;;;;;;;5109322;27;50693;-76
2023/04/15 21:00:03;;;;;;;;;33.75;33.75;;;;;;;;5094793;27;49921;-76
2023/04/15 21:02:28;;;;;;;;;33.50;31.00;;;;;;;;5100851;27;50124;-76
2023/04/15 21:04:54;;;;;;;;;36.50;32.50;;;;;;;;5105854;27;50119;-76
2023/04/15 21:07:19;;;;;;;;;32.75;30.75;;;;;;;;5106164;27;50528;-76
2023/04/15 21:09:45;;;;;;;;;35.25;32.50;;;;;;;;5104841;27;49777;-76
2023/04/15 21:12:10;;;;;;;;;28.00;27.50;;;;;;;;5089917;27;50085;-77
2023/04/15 21:14:36;;;;;;;;;28.00;28.00;;;;;;;;5102084;27;49927;-77
2023/04/15 21:17:07;;;;;;;;;42.50;36.00;;;;;;;;5100868;27;49761;-77
2023/04/15 21:19:33;;;;;;;;;33.00;31.50;;;;;;;;5101025;27;50238;-77